Time;durP1;ratioP1;P1;durP2;ratioP2;P2;SDS_P1;SDS_P2;PMS_P1;PMS_P2;Temp;Humidity;BMP_temperature;BMP_pressure;BME280_temperature;BME280_humidity;BME280_pressure;Samples;Min_cycle;Max_cycle;Signal;HPM_P1;HPM_P2
2022/06/03 00:01:18;;;;;;;6.07;3.53;;;;;;;11.99;65.35;101753.34;5023971;28;20052;-70
2022/06/03 00:04:00;;;;;;;4.60;3.40;;;;;;;12.10;64.92;101748.50;5025456;28;20514;-70
2022/06/03 00:06:44;;;;;;;5.53;3.22;;;;;;;12.18;65.24;101741.13;5025167;28;20045;-69
2022/06/03 00:09:47;;;;;;;4.75;2.90;;;;;;;12.23;64.26;101730.44;5025181;28;20103;-69
2022/06/03 00:12:39;;;;;;;4.50;2.90;;;;;;;12.10;64.41;101743.22;5024493;28;20049;-69
2022/06/03 00:15:24;;;;;;;3.42;2.72;;;;;;;12.05;63.28;101737.31;5022065;28;20568;-69
2022/06/03 00:18:29;;;;;;;8.48;2.67;;;;;;;11.97;62.94;101736.78;5024654;28;20041;-69
2022/06/03 00:21:02;;;;;;;5.43;2.50;;;;;;;11.79;63.03;101734.94;5018372;28;20130;-69
2022/06/03 00:23:51;;;;;;;;;;;;;;;11.81;63.38;101744.44;5029523;28;20115;-69
2022/06/03 00:26:40;;;;;;;5.22;2.83;;;;;;;11.69;63.91;101750.16;5045367;28;19927;-68
2022/06/03 00:29:21;;;;;;;7.65;3.55;;;;;;;11.67;63.78;101744.97;5036383;28;20048;-69
2022/06/03 00:32:12;;;;;;;3.53;2.65;;;;;;;11.67;64.02;101752.88;5024969;28;20095;-69
2022/06/03 00:35:06;;;;;;;3.95;2.95;;;;;;;11.73;63.71;101750.91;5021871;28;20041;-69
2022/06/03 00:37:46;;;;;;;4.68;2.78;;;;;;;11.71;63.43;101745.75;5022748;28;20103;-69
2022/06/03 00:40:26;;;;;;;4.55;2.90;;;;;;;11.55;63.09;101741.97;5024677;28;20045;-69
2022/06/03 00:43:14;;;;;;;5.90;2.80;;;;;;;11.59;63.73;101743.56;5004710;28;20092;-70
2022/06/03 00:46:00;;;;;;;5.43;3.10;;;;;;;11.57;63.66;101740.13;5014841;28;20045;-69
2022/06/03 00:48:37;;;;;;;5.72;2.92;;;;;;;11.31;64.42;101742.94;5024201;28;20449;-69
2022/06/03 00:51:34;;;;;;;4.20;3.00;;;;;;;11.18;64.89;101732.91;5029655;28;20099;-69
2022/06/03 00:54:25;;;;;;;4.55;3.13;;;;;;;11.06;66.18;101738.63;5024440;28;20069;-69
2022/06/03 00:57:27;;;;;;;5.03;3.20;;;;;;;11.29;65.07;101736.88;5004001;28;20053;-70
2022/06/03 01:00:07;;;;;;;4.55;2.97;;;;;;;11.27;64.84;101729.06;5025225;28;20126;-69
2022/06/03 01:02:55;;;;;;;6.15;3.15;;;;;;;11.34;64.25;101738.44;5043020;28;20102;-69
2022/06/03 01:05:32;;;;;;;4.65;3.13;;;;;;;11.40;64.19;101740.81;5024779;28;20050;-69
2022/06/03 01:08:09;;;;;;;5.45;3.05;;;;;;;11.40;63.80;101730.31;5023134;28;20045;-69
2022/06/03 01:11:02;;;;;;;4.28;3.22;;;;;;;11.43;63.69;101730.19;5039817;28;20124;-70
2022/06/03 01:13:34;;;;;;;;;;;;;;;11.49;63.72;101729.91;5027627;28;20046;-70
2022/06/03 01:16:18;;;;;;;7.05;3.70;;;;;;;11.46;64.20;101734.44;5023882;28;19921;-69
2022/06/03 01:18:51;;;;;;;6.78;3.80;;;;;;;11.27;65.00;101733.47;5025969;28;20104;-69
2022/06/03 01:21:35;;;;;;;7.30;3.97;;;;;;;11.09;64.94;101735.00;5026610;28;20045;-69
2022/06/03 01:24:40;;;;;;;8.48;4.07;;;;;;;10.82;66.04;101733.44;5027931;28;20049;-68
2022/06/03 01:27:38;;;;;;;4.75;3.63;;;;;;;10.51;66.73;101725.81;5027660;28;20490;-68
2022/06/03 01:30:19;;;;;;;5.45;3.90;;;;;;;9.90;69.92;101741.00;5042837;28;20253;-69
2022/06/03 01:33:14;;;;;;;6.57;3.97;;;;;;;10.35;68.98;101730.75;5046390;28;20072;-69
2022/06/03 01:36:11;;;;;;;6.28;4.07;;;;;;;10.38;69.33;101737.66;5045952;28;20045;-69
2022/06/03 01:38:55;;;;;;;6.40;4.03;;;;;;;10.50;68.98;101726.72;5025913;28;20115;-68
2022/06/03 01:41:43;;;;;;;5.88;4.03;;;;;;;10.55;68.67;101727.41;5036861;28;20037;-68
2022/06/03 01:44:33;;;;;;;4.63;3.58;;;;;;;10.57;67.27;101718.56;5043340;28;20046;-68
2022/06/03 01:48:03;;;;;;;4.57;3.60;;;;;;;10.60;67.10;101726.38;5022155;28;20046;-69
2022/06/03 01:51:08;;;;;;;4.97;3.85;;;;;;;10.18;68.37;101733.97;5023191;28;20049;-69
2022/06/03 01:53:54;;;;;;;5.28;3.75;;;;;;;9.98;70.53;101733.72;5005823;28;20053;-69
2022/06/03 01:56:48;;;;;;;7.32;4.35;;;;;;;10.25;70.06;101735.47;5022362;28;20434;-70
2022/06/03 01:59:52;;;;;;;5.85;3.90;;;;;;;10.34;69.07;101733.44;5023872;28;20147;-70
2022/06/03 02:02:43;;;;;;;9.95;4.63;;;;;;;10.51;68.44;101715.31;5024237;28;20095;-69
2022/06/03 02:05:40;;;;;;;6.60;4.40;;;;;;;10.54;68.40;101721.31;5025562;28;20107;-69
2022/06/03 02:08:29;;;;;;;11.55;4.57;;;;;;;10.24;68.31;101723.25;5027894;28;20099;-69
2022/06/03 02:11:23;;;;;;;7.93;4.88;;;;;;;10.35;68.04;101708.94;5045165;28;20094;-69
2022/06/03 02:14:31;;;;;;;6.20;4.20;;;;;;;10.48;68.00;101716.31;5047173;28;20583;-69
2022/06/03 02:17:12;;;;;;;5.68;4.43;;;;;;;10.18;67.45;101709.50;5019090;28;20071;-69
2022/06/03 02:20:21;;;;;;;6.78;5.00;;;;;;;9.99;69.00;101708.38;5030376;28;20494;-69
2022/06/03 02:23:22;;;;;;;7.78;4.40;;;;;;;10.15;69.56;101702.63;5026443;28;20072;-69
2022/06/03 02:26:15;;;;;;;6.40;4.70;;;;;;;10.03;69.58;101705.63;5009218;28;20107;-69
2022/06/03 02:32:21;;;;;;;6.57;5.07;;;;;;;10.17;69.28;101698.16;5031842;28;20555;-70
2022/06/03 02:35:25;;;;;;;8.85;4.97;;;;;;;9.99;69.44;101701.38;5019165;28;20046;-70
2022/06/03 02:38:25;;;;;;;6.35;4.28;;;;;;;9.96;69.01;101701.50;5026347;28;20072;-70
2022/06/03 02:41:09;;;;;;;5.93;4.28;;;;;;;10.17;67.49;101710.41;5022792;28;20041;-70
2022/06/03 02:44:03;;;;;;;7.63;4.40;;;;;;;10.05;67.52;101703.78;5025330;28;20099;-70
2022/06/03 02:46:52;;;;;;;5.88;4.28;;;;;;;10.11;66.66;101711.47;5027024;28;20522;-70
2022/06/03 02:49:40;;;;;;;8.27;4.57;;;;;;;9.74;67.74;101706.59;5029468;28;20481;-71
2022/06/03 02:52:43;;;;;;;6.90;4.70;;;;;;;9.95;67.52;101696.28;5006336;28;20072;-71
2022/06/03 02:55:43;;;;;;;5.82;4.22;;;;;;;10.13;67.13;101704.38;5016750;28;20123;-71
2022/06/03 02:58:34;;;;;;;8.30;4.45;;;;;;;9.92;67.57;101699.03;5025514;28;20639;-69
2022/06/03 03:01:19;;;;;;;6.25;4.35;;;;;;;9.69;67.15;101691.94;5037717;28;20045;-70
2022/06/03 03:04:08;;;;;;;7.78;3.80;;;;;;;9.58;67.24;101694.03;5025796;28;20045;-70
2022/06/03 03:07:04;;;;;;;5.07;3.45;;;;;;;9.57;67.05;101698.41;5022208;28;20593;-70
2022/06/03 03:09:41;;;;;;;4.97;3.65;;;;;;;9.64;67.08;101699.97;5025345;28;20391;-70
2022/06/03 03:12:31;;;;;;;5.20;3.55;;;;;;;9.57;67.46;101697.59;5011101;28;20045;-70
2022/06/03 03:15:21;;;;;;;10.27;4.00;;;;;;;9.53;67.61;101702.06;5004723;28;20050;-70
2022/06/03 03:18:24;;;;;;;9.38;4.13;;;;;;;9.41;67.66;101701.59;5012022;28;20049;-69
2022/06/03 03:21:07;;;;;;;8.10;4.07;;;;;;;9.37;67.54;101710.44;5023463;28;20490;-70
2022/06/03 03:24:22;;;;;;;7.38;4.10;;;;;;;9.37;67.97;101708.69;5024576;28;20609;-70
2022/06/03 03:27:02;;;;;;;4.95;4.13;;;;;;;9.51;67.66;101705.63;5003604;28;20046;-70
2022/06/03 03:30:01;;;;;;;6.22;4.20;;;;;;;9.39;67.48;101704.25;5025986;28;20046;-70
2022/06/03 03:32:44;;;;;;;14.52;4.97;;;;;;;9.25;69.03;101704.69;5025681;28;20103;-70
2022/06/03 03:35:22;;;;;;;5.75;4.47;;;;;;;9.20;69.48;101703.13;5031065;28;20119;-70
2022/06/03 03:38:32;;;;;;;6.55;4.78;;;;;;;9.54;68.32;101713.38;5025303;28;20480;-70
2022/06/03 03:41:30;;;;;;;7.47;4.90;;;;;;;9.41;69.30;101706.81;5024726;28;20414;-70
2022/06/03 03:44:37;;;;;;;9.32;5.20;;;;;;;9.36;70.16;101709.56;5026036;28;20544;-70
2022/06/03 03:47:51;;;;;;;7.40;5.38;;;;;;;9.16;71.45;101707.56;5006041;28;20038;-70
2022/06/03 03:50:43;;;;;;;8.02;5.70;;;;;;;8.35;76.53;101712.59;5011836;28;20045;-70
2022/06/03 03:53:35;;;;;;;7.13;5.45;;;;;;;8.46;76.93;101721.81;5025535;28;20048;-70
2022/06/03 03:56:44;;;;;;;7.88;5.30;;;;;;;8.57;77.73;101714.53;5024204;28;20038;-70
2022/06/03 03:59:34;;;;;;;8.13;5.38;;;;;;;8.69;77.12;101723.81;5022931;28;20053;-70
2022/06/03 04:02:36;;;;;;;6.55;5.20;;;;;;;9.55;74.58;101718.56;5025364;28;20045;-70
2022/06/03 04:05:30;;;;;;;9.57;5.80;;;;;;;9.88;73.39;101708.75;5011948;28;20041;-70
2022/06/03 04:08:36;;;;;;;8.50;5.50;;;;;;;10.16;71.99;101711.34;5027339;28;20481;-69
2022/06/03 04:11:44;;;;;;;7.53;5.20;;;;;;;10.47;71.00;101717.22;5007824;28;20056;-69
2022/06/03 04:14:41;;;;;;;10.05;5.50;;;;;;;10.65;70.82;101724.41;5037865;28;20041;-69
2022/06/03 04:17:30;;;;;;;6.57;5.68;;;;;;;10.71;70.66;101713.72;5036191;28;20045;-69
2022/06/03 04:20:28;;;;;;;9.60;6.40;;;;;;;10.85;72.08;101720.19;5032333;28;20827;-70
2022/06/03 04:23:22;;;;;;;7.60;5.60;;;;;;;11.15;71.03;101725.16;5029262;28;20099;-70
2022/06/03 04:26:14;;;;;;;7.88;5.93;;;;;;;11.41;70.98;101731.16;5044927;28;20041;-70
2022/06/03 04:28:58;;;;;;;8.15;6.10;;;;;;;11.89;69.38;101723.09;5030869;28;20046;-70
2022/06/03 04:32:04;;;;;;;10.13;6.50;;;;;;;12.04;69.94;101722.47;5028029;28;20057;-70
2022/06/03 04:35:11;;;;;;;7.50;6.13;;;;;;;12.25;69.67;101725.94;5025209;28;20472;-67
2022/06/03 04:38:16;;;;;;;9.82;6.63;;;;;;;11.90;71.48;101733.53;5035876;28;20103;-67
2022/06/03 04:41:22;;;;;;;10.90;6.57;;;;;;;11.99;72.07;101730.53;5023400;28;20088;-67
2022/06/03 04:44:29;;;;;;;7.53;5.82;;;;;;;12.28;71.62;101731.94;5024251;28;20045;-66
2022/06/03 04:47:29;;;;;;;8.73;6.22;;;;;;;12.59;69.32;101724.44;5023860;28;20075;-66
2022/06/03 04:50:45;;;;;;;7.18;5.28;;;;;;;12.74;69.13;101722.88;5024341;28;20072;-66
2022/06/03 04:53:47;;;;;;;8.98;5.65;;;;;;;13.05;68.96;101723.19;5023480;28;20042;-67
2022/06/03 04:56:51;;;;;;;7.82;6.05;;;;;;;13.15;69.04;101721.03;5023490;28;20348;-67
2022/06/03 04:59:48;;;;;;;8.18;5.80;;;;;;;13.35;68.82;101725.31;5023525;28;20111;-67
2022/06/03 05:02:52;;;;;;;12.98;5.72;;;;;;;13.74;68.22;101714.66;5023730;28;20050;-67
2022/06/03 05:05:44;;;;;;;10.35;5.43;;;;;;;14.30;65.91;101717.91;5022049;28;20052;-67
2022/06/03 05:08:55;;;;;;;7.65;5.00;;;;;;;14.60;65.07;101718.13;5025685;28;20051;-67
2022/06/03 05:11:58;;;;;;;6.68;5.15;;;;;;;14.84;63.49;101716.84;5024085;28;20502;-66
2022/06/03 05:14:54;;;;;;;7.07;5.07;;;;;;;15.26;61.44;101710.16;5023889;28;20107;-66
2022/06/03 05:17:47;;;;;;;6.68;4.63;;;;;;;15.45;62.11;101718.72;5022686;28;20045;-66
2022/06/03 05:20:51;;;;;;;6.10;4.88;;;;;;;15.11;61.19;101714.50;5020516;28;20111;-66
2022/06/03 05:23:55;;;;;;;7.05;4.85;;;;;;;15.17;59.54;101718.56;5010823;28;20049;-66
2022/06/03 05:26:48;;;;;;;6.03;5.07;;;;;;;16.05;58.41;101714.38;5022259;28;20049;-67
2022/06/03 05:29:37;;;;;;;7.20;5.15;;;;;;;16.23;57.02;101707.13;5023542;28;20049;-67
2022/06/03 05:32:30;;;;;;;7.47;5.53;;;;;;;15.94;58.69;101706.22;5024222;28;20617;-67
2022/06/03 05:35:27;;;;;;;7.32;4.85;;;;;;;16.24;58.80;101703.53;5017315;28;20053;-67
2022/06/03 05:38:15;;;;;;;5.38;4.35;;;;;;;16.51;56.94;101693.94;5021971;28;20443;-67
2022/06/03 05:40:56;;;;;;;5.80;4.82;;;;;;;17.18;55.14;101695.91;5026757;28;20477;-67
2022/06/03 05:43:43;;;;;;;5.70;4.70;;;;;;;17.59;53.66;101692.41;5028363;28;20050;-67
2022/06/03 05:46:15;;;;;;;8.55;5.25;;;;;;;17.38;54.95;101695.47;5026134;28;20095;-66
2022/06/03 05:49:03;;;;;;;7.47;5.13;;;;;;;18.07;52.65;101691.75;5028549;28;20045;-66
2022/06/03 05:51:48;;;;;;;8.70;4.68;;;;;;;18.40;53.27;101680.66;5025079;28;20099;-66
2022/06/03 05:54:30;;;;;;;6.10;4.68;;;;;;;18.82;52.63;101682.97;5026858;28;20049;-66
2022/06/03 05:57:15;;;;;;;5.30;4.80;;;;;;;19.62;48.86;101676.19;5026782;28;20053;-67
2022/06/03 05:59:56;;;;;;;16.67;5.70;;;;;;;20.10;46.29;101674.31;5021533;28;20280;-66
2022/06/03 06:02:31;;;;;;;11.55;4.78;;;;;;;19.88;47.99;101676.94;4988209;28;20497;-66
2022/06/03 06:05:14;;;;;;;4.90;4.07;;;;;;;20.07;47.46;101674.53;5012989;28;20049;-66
2022/06/03 06:07:50;;;;;;;6.85;4.22;;;;;;;19.88;47.85;101675.09;5016623;28;20042;-66
2022/06/03 06:10:31;;;;;;;10.02;3.90;;;;;;;18.90;50.52;101677.09;5018098;28;20107;-66
2022/06/03 06:13:13;;;;;;;11.38;4.30;;;;;;;19.42;50.03;101677.72;5016563;28;20046;-66
2022/06/03 06:15:57;;;;;;;5.72;3.65;;;;;;;20.48;47.85;101678.50;5010349;28;20050;-66
2022/06/03 06:18:29;;;;;;;8.90;3.38;;;;;;;21.34;44.07;101675.06;5013039;28;20050;-66
2022/06/03 06:21:05;;;;;;;4.53;2.85;;;;;;;21.48;43.76;101679.25;5024641;28;20127;-66
2022/06/03 06:23:42;;;;;;;5.20;2.42;;;;;;;21.71;43.16;101667.53;5027925;28;20061;-67
2022/06/03 06:26:43;;;;;;;8.82;2.47;;;;;;;21.99;42.17;101667.91;5026791;28;20497;-67
2022/06/03 06:29:33;;;;;;;6.32;2.22;;;;;;;22.15;41.19;101660.28;5017981;28;20486;-67
2022/06/03 06:32:26;;;;;;;5.30;2.03;;;;;;;22.66;40.02;101661.09;5004881;28;20046;-67
2022/06/03 06:35:33;;;;;;;3.80;2.22;;;;;;;22.65;38.96;101654.03;5009203;28;20110;-68
2022/06/03 06:38:11;;;;;;;3.95;2.15;;;;;;;22.53;40.87;101647.13;5041061;28;20075;-67
2022/06/03 06:40:48;;;;;;;4.35;2.15;;;;;;;22.97;39.00;101656.59;5030307;28;20045;-67
2022/06/03 06:43:33;;;;;;;6.20;2.03;;;;;;;23.65;37.88;101652.19;5028702;28;20049;-68
2022/06/03 06:46:10;;;;;;;5.63;2.40;;;;;;;23.59;36.91;101660.78;5023662;28;20041;-68
2022/06/03 06:48:49;;;;;;;4.72;2.10;;;;;;;23.26;40.05;101667.34;5051780;28;20114;-67
2022/06/03 06:51:35;;;;;;;3.92;2.10;;;;;;;23.75;38.13;101653.88;5045363;28;20066;-67
2022/06/03 06:54:08;;;;;;;4.18;2.28;;;;;;;23.86;38.54;101650.19;5045083;28;20053;-68
2022/06/03 06:56:42;;;;;;;5.63;2.33;;;;;;;24.23;36.99;101644.94;5030520;28;20445;-67
2022/06/03 06:59:14;;;;;;;7.80;2.40;;;;;;;24.52;35.37;101652.88;5029996;28;20102;-67
2022/06/03 07:01:42;;;;;;;;;;;;;;;24.22;34.70;101649.44;5030411;28;20049;-67
2022/06/03 07:04:12;;;;;;;3.78;2.72;;;;;;;23.15;36.11;101654.94;5032702;28;20313;-67
2022/06/03 07:06:43;;;;;;;11.95;2.65;;;;;;;22.86;38.17;101643.31;5029308;28;20046;-67
2022/06/03 07:09:39;;;;;;;8.57;2.60;;;;;;;23.32;37.33;101652.56;5044774;28;20461;-67
2022/06/03 07:12:11;;;;;;;6.40;2.53;;;;;;;23.52;36.59;101654.28;5013285;28;20052;-67
2022/06/03 07:14:42;;;;;;;;;;;;;;;23.53;37.64;101647.97;5037481;28;20134;-67
2022/06/03 07:20:08;;;;;;;4.68;2.45;;;;;;;24.65;34.44;101632.75;5041909;28;20044;-67
2022/06/03 07:22:43;;;;;;;4.68;2.58;;;;;;;24.30;34.45;101635.31;5045759;28;20040;-67
2022/06/03 07:25:19;;;;;;;3.13;2.15;;;;;;;24.65;35.18;101623.88;5045789;28;20477;-67
2022/06/03 07:27:55;;;;;;;12.18;2.20;;;;;;;25.18;34.69;101632.91;5035294;28;20115;-67
2022/06/03 07:30:31;;;;;;;4.28;2.00;;;;;;;25.07;34.03;101634.97;5031714;28;20053;-68
2022/06/03 07:33:02;;;;;;;6.50;2.20;;;;;;;24.94;32.89;101631.81;5010707;28;20061;-68
2022/06/03 07:35:34;;;;;;;11.15;2.28;;;;;;;25.19;34.74;101618.50;5025044;28;20119;-68
2022/06/03 07:38:05;;;;;;;3.20;2.20;;;;;;;24.85;33.46;101620.13;5037517;28;20091;-68
2022/06/03 07:40:38;;;;;;;4.63;2.20;;;;;;;24.57;34.10;101629.16;5033110;28;20111;-68
2022/06/03 07:43:10;;;;;;;6.57;2.10;;;;;;;24.29;32.58;101619.38;5037029;28;20088;-68
2022/06/03 07:45:39;;;;;;;;;;;;;;;24.75;31.69;101605.91;5034426;28;20041;-68
2022/06/03 07:48:10;;;;;;;5.25;2.45;;;;;;;25.23;31.21;101623.56;5024223;28;19928;-68
2022/06/03 07:50:45;;;;;;;7.07;2.05;;;;;;;25.22;32.37;101613.81;5023843;28;20547;-67
2022/06/03 07:53:17;;;;;;;2.25;1.63;;;;;;;25.41;32.22;101597.56;5025310;28;20045;-67
2022/06/03 07:55:51;;;;;;;5.15;2.10;;;;;;;25.48;31.31;101606.66;5038733;28;20042;-67
2022/06/03 07:58:18;;;;;;;4.57;2.10;;;;;;;25.98;30.43;101610.44;5037599;28;20115;-66
2022/06/03 08:00:46;;;;;;;3.45;2.38;;;;;;;26.22;29.83;101609.78;5023285;28;20045;-67
2022/06/03 08:03:15;;;;;;;5.90;1.83;;;;;;;26.01;30.58;101602.09;5027294;28;20053;-67
2022/06/03 08:05:44;;;;;;;2.17;1.75;;;;;;;25.43;30.86;101609.81;5026908;28;20072;-67
2022/06/03 08:10:58;;;;;;;5.32;2.03;;;;;;;26.44;29.46;101598.47;5024675;28;20059;-67
2022/06/03 08:13:26;;;;;;;6.18;1.85;;;;;;;24.62;31.50;101598.19;5025295;28;20675;-67
2022/06/03 08:15:58;;;;;;;5.28;2.25;;;;;;;25.77;33.04;101601.06;5039409;28;20037;-66
2022/06/03 08:18:29;;;;;;;2.22;1.63;;;;;;;26.41;30.54;101606.03;5014116;28;20049;-66
2022/06/03 08:21:00;;;;;;;3.00;2.13;;;;;;;26.09;29.31;101596.72;5024169;28;20643;-66
2022/06/03 08:23:30;;;;;;;8.52;2.10;;;;;;;25.75;32.87;101595.00;5022703;28;20128;-67
2022/06/03 08:25:58;;;;;;;6.63;2.00;;;;;;;26.31;30.19;101605.31;5023681;28;20037;-67
2022/06/03 08:28:28;;;;;;;2.67;1.70;;;;;;;26.67;28.99;101601.44;5023313;28;20130;-68
2022/06/03 08:30:58;;;;;;;4.72;2.00;;;;;;;26.79;29.51;101605.47;5024784;28;20053;-68
2022/06/03 08:33:32;;;;;;;6.05;2.10;;;;;;;26.87;28.55;101608.22;5027558;28;20632;-68
2022/06/03 08:35:59;;;;;;;7.82;2.10;;;;;;;27.42;29.94;101591.53;5025291;28;20045;-68
2022/06/03 08:38:31;;;;;;;6.28;2.58;;;;;;;27.09;28.63;101601.38;5022061;28;20053;-68
2022/06/03 08:41:02;;;;;;;;;;;;;;;24.89;30.52;101601.91;5025886;28;20053;-67
2022/06/03 08:43:33;;;;;;;2.97;1.90;;;;;;;26.38;34.01;101600.97;5026544;28;19975;-67
2022/06/03 08:46:09;;;;;;;2.78;1.80;;;;;;;27.57;31.96;101593.38;5022376;28;20037;-68
2022/06/03 08:48:40;;;;;;;3.58;1.95;;;;;;;28.41;29.23;101582.13;5039261;28;20098;-68
2022/06/03 08:51:12;;;;;;;5.63;1.83;;;;;;;28.09;26.42;101574.13;5043661;28;20033;-68
2022/06/03 08:53:43;;;;;;;;;;;;;;;28.55;27.74;101583.25;5028271;28;20041;-70
2022/06/03 08:56:12;;;;;;;6.47;1.90;;;;;;;27.61;28.51;101580.41;5024528;28;19924;-67
2022/06/03 08:58:46;;;;;;;3.67;1.88;;;;;;;28.24;25.70;101579.63;5024792;28;20490;-67
2022/06/03 09:01:28;;;;;;;8.23;2.10;;;;;;;28.19;25.61;101569.41;5023385;28;20068;-67
2022/06/03 09:04:01;;;;;;;;;;;;;;;28.00;24.90;101567.91;5024578;28;20046;-67
2022/06/03 09:06:36;;;;;;;3.58;2.03;;;;;;;27.58;26.67;101565.44;5027446;28;20022;-67
2022/06/03 09:09:09;;;;;;;3.08;1.75;;;;;;;27.77;28.14;101575.00;5033184;28;20053;-67
2022/06/03 09:11:41;;;;;;;2.42;1.60;;;;;;;28.73;28.56;101561.41;5039876;28;20417;-67
2022/06/03 09:14:11;;;;;;;3.08;2.10;;;;;;;29.12;26.20;101562.16;5036322;28;20095;-67
2022/06/03 09:16:40;;;;;;;3.80;1.90;;;;;;;28.54;25.21;101562.66;5026324;28;20460;-67
2022/06/03 09:19:12;;;;;;;5.50;1.90;;;;;;;26.98;26.42;101570.25;5031525;28;20044;-67
2022/06/03 09:21:41;;;;;;;;;;;;;;;26.25;29.45;101563.75;5010804;28;20050;-67
2022/06/03 09:24:12;;;;;;;6.88;1.80;;;;;;;26.15;28.58;101563.00;5027277;28;19925;-67
2022/06/03 09:26:42;;;;;;;5.10;2.10;;;;;;;26.16;28.35;101554.78;5026838;28;20099;-67
2022/06/03 09:29:12;;;;;;;3.08;1.80;;;;;;;25.90;30.42;101543.22;5027285;28;20127;-67
2022/06/03 09:31:45;;;;;;;4.72;1.80;;;;;;;25.68;30.06;101559.88;5025547;28;20045;-67
2022/06/03 09:34:14;;;;;;;3.40;1.63;;;;;;;25.82;28.33;101553.94;5025814;28;20099;-67
2022/06/03 09:36:40;;;;;;;4.57;1.88;;;;;;;26.60;30.74;101563.59;5028371;28;20136;-67
2022/06/03 09:39:10;;;;;;;6.82;1.95;;;;;;;27.22;27.82;101556.00;5028294;28;20065;-67
2022/06/03 09:41:41;;;;;;;3.42;1.98;;;;;;;28.26;25.89;101558.75;5025218;28;20139;-67
2022/06/03 09:44:10;;;;;;;3.63;1.60;;;;;;;27.52;25.95;101554.50;5015786;28;20073;-67
2022/06/03 09:46:38;;;;;;;4.07;1.60;;;;;;;28.35;25.92;101546.91;5027092;28;20046;-67
2022/06/03 09:49:07;;;;;;;3.65;1.80;;;;;;;28.67;26.73;101556.69;5027980;28;20111;-67
2022/06/03 09:51:59;;;;;;;4.85;2.63;;;;;;;26.64;28.09;101545.28;5008115;28;20054;-67
2022/06/03 09:54:28;;;;;;;3.08;1.95;;;;;;;26.97;26.63;101538.97;5031369;28;20512;-67
2022/06/03 09:56:57;;;;;;;2.30;1.67;;;;;;;27.36;28.59;101533.75;5039654;28;20056;-67
2022/06/03 09:59:26;;;;;;;4.30;1.95;;;;;;;27.70;27.26;101539.00;5022142;28;20096;-67
2022/06/03 10:01:53;;;;;;;5.18;2.00;;;;;;;28.38;26.61;101535.78;5026252;28;20049;-67
2022/06/03 10:04:23;;;;;;;11.73;2.08;;;;;;;28.20;26.68;101537.84;5028358;28;20038;-67
2022/06/03 10:06:50;;;;;;;7.40;2.00;;;;;;;28.93;26.75;101538.34;5004355;28;20050;-67
2022/06/03 10:17:33;;;;;;;3.22;1.83;;;;;;;29.64;26.62;101529.00;5028054;28;20487;-67
2022/06/03 10:20:00;;;;;;;3.45;1.83;;;;;;;29.44;25.85;101528.69;5025148;28;20549;-67
2022/06/03 10:22:27;;;;;;;3.38;1.90;;;;;;;29.24;24.86;101535.56;5025659;28;20777;-67
2022/06/03 10:24:55;;;;;;;3.00;1.80;;;;;;;28.86;25.85;101535.50;5026386;28;20037;-67
2022/06/03 10:27:21;;;;;;;2.38;1.60;;;;;;;29.20;25.57;101540.50;5026737;28;20049;-67
2022/06/03 10:29:50;;;;;;;2.35;1.60;;;;;;;28.52;27.89;101529.63;5023939;28;20293;-67
2022/06/03 10:32:19;;;;;;;2.95;1.75;;;;;;;29.51;25.79;101526.06;5026237;28;20054;-67
2022/06/03 10:34:47;;;;;;;2.03;1.52;;;;;;;29.30;24.22;101526.78;5031175;28;20072;-67
2022/06/03 10:37:20;;;;;;;3.90;1.88;;;;;;;27.89;26.00;101533.22;5025825;28;20493;-67
2022/06/03 10:39:47;;;;;;;2.03;1.50;;;;;;;27.89;25.77;101525.13;5025364;28;20419;-67
2022/06/03 10:42:15;;;;;;;3.13;1.92;;;;;;;28.39;26.18;101521.25;5026778;28;20049;-66
2022/06/03 10:44:44;;;;;;;2.28;1.70;;;;;;;27.35;27.19;101507.00;5027723;28;20081;-66
2022/06/03 10:47:15;;;;;;;4.47;1.90;;;;;;;27.15;27.64;101502.97;5023020;28;20046;-67
2022/06/03 10:49:51;;;;;;;1.98;1.60;;;;;;;28.30;27.51;101501.59;5033758;28;20041;-67
2022/06/03 11:03:31;;;;;;;2.47;1.80;;;;;;;30.98;23.96;101480.78;5033356;28;20566;-67
2022/06/03 11:06:03;;;;;;;3.50;2.00;;;;;;;29.28;25.25;101480.19;5025572;28;20441;-67
2022/06/03 11:08:45;;;;;;;;;;;;;;;28.89;24.96;101474.94;5025894;28;20069;-67
2022/06/03 11:11:11;;;;;;;;;;;;;;;28.99;28.67;101468.25;5024048;28;19979;-67
2022/06/03 11:13:39;;;;;;;3.03;1.80;;;;;;;28.67;25.93;101464.94;5028667;28;19921;-67
2022/06/03 11:16:14;;;;;;;2.80;1.60;;;;;;;28.94;26.58;101462.56;5023690;28;20050;-67
2022/06/03 11:18:41;;;;;;;2.55;1.63;;;;;;;28.69;26.70;101462.94;5025796;28;20049;-67
2022/06/03 11:21:19;;;;;;;4.55;1.90;;;;;;;28.60;25.46;101454.03;5024900;28;20129;-67
2022/06/03 11:23:47;;;;;;;2.33;1.70;;;;;;;27.32;27.22;101461.56;5028329;28;20117;-67
2022/06/03 11:26:13;;;;;;;4.50;1.83;;;;;;;26.73;26.56;101458.16;5027009;28;20076;-67
2022/06/03 11:28:44;;;;;;;5.50;1.70;;;;;;;28.32;25.43;101459.09;5024122;28;20095;-67
2022/06/03 11:31:15;;;;;;;4.65;1.60;;;;;;;28.14;26.38;101447.72;5024957;28;20136;-67
2022/06/03 11:33:47;;;;;;;4.45;1.73;;;;;;;29.08;28.14;101436.66;5030852;28;20114;-67
2022/06/03 11:36:18;;;;;;;3.38;1.60;;;;;;;29.24;26.12;101438.31;5025884;28;20143;-67
2022/06/03 11:38:50;;;;;;;1.70;1.58;;;;;;;28.29;24.27;101428.94;5025645;28;24658;-67
2022/06/03 11:41:21;;;;;;;3.58;1.80;;;;;;;28.18;26.49;101422.09;5040541;28;20077;-67
2022/06/03 11:43:54;;;;;;;2.13;1.60;;;;;;;28.95;26.46;101420.22;5045319;28;20041;-67
2022/06/03 11:46:26;;;;;;;2.90;1.70;;;;;;;29.15;25.28;101410.56;5032247;28;20068;-67
2022/06/03 11:48:53;;;;;;;2.08;1.38;;;;;;;30.00;28.41;101412.88;5035180;28;20464;-67
2022/06/03 11:51:19;;;;;;;1.60;1.48;;;;;;;30.60;22.72;101396.28;5044430;28;20501;-67
2022/06/03 11:53:49;;;;;;;4.25;1.70;;;;;;;30.07;25.72;101406.50;5044271;28;20090;-67
2022/06/03 11:56:19;;;;;;;3.15;1.92;;;;;;;30.07;26.34;101405.66;5045328;28;20513;-67
2022/06/03 11:58:52;;;;;;;3.35;1.70;;;;;;;30.46;28.22;101405.28;5038933;28;20114;-67
2022/06/03 12:01:23;;;;;;;2.28;1.55;;;;;;;30.34;24.62;101391.41;5021999;28;20053;-67
2022/06/03 12:03:59;;;;;;;3.33;1.77;;;;;;;29.14;26.21;101383.75;5025852;28;20506;-67
2022/06/03 12:06:36;;;;;;;6.28;1.80;;;;;;;28.52;28.41;101384.78;5023582;28;20632;-67
2022/06/03 12:09:09;;;;;;;7.28;1.60;;;;;;;28.81;25.12;101383.22;5024119;28;20449;-67
2022/06/03 12:14:35;;;;;;;4.45;2.30;;;;;;;29.45;24.92;101373.66;5042982;28;20122;-67
2022/06/03 12:17:22;;;;;;;2.63;1.65;;;;;;;29.18;25.29;101364.28;5028318;28;20103;-67
2022/06/03 12:19:51;;;;;;;3.15;1.90;;;;;;;29.56;27.19;101367.78;5023542;28;20473;-67
2022/06/03 12:22:40;;;;;;;3.35;1.73;;;;;;;29.88;26.58;101361.13;5029577;28;20045;-67
2022/06/03 12:25:37;;;;;;;5.03;1.92;;;;;;;30.30;28.23;101368.47;5020643;28;20070;-67
2022/06/03 12:28:06;;;;;;;3.92;1.50;;;;;;;30.54;26.11;101359.16;5023686;28;20049;-67
2022/06/03 12:30:38;;;;;;;5.18;1.75;;;;;;;30.48;25.26;101347.25;5022482;28;20411;-67
2022/06/03 12:33:10;;;;;;;4.75;1.90;;;;;;;30.18;23.17;101351.91;5031570;28;20045;-70
2022/06/03 12:36:02;;;;;;;6.70;2.38;;;;;;;30.75;24.48;101346.41;5025118;28;20041;-67
2022/06/03 12:38:44;;;;;;;3.45;1.75;;;;;;;30.43;25.84;101355.94;5015720;28;20077;-67
2022/06/03 12:41:50;;;;;;;4.40;2.20;;;;;;;31.12;23.61;101350.69;5027116;28;20494;-67
2022/06/03 12:44:36;;;;;;;4.72;1.85;;;;;;;30.26;23.03;101357.19;5023330;28;20526;-67
2022/06/03 12:47:28;;;;;;;3.53;1.73;;;;;;;30.42;23.84;101345.28;5024310;28;20099;-67
2022/06/03 12:49:56;;;;;;;2.17;1.63;;;;;;;30.53;24.42;101339.34;5023175;28;20038;-67
2022/06/03 12:52:37;;;;;;;3.85;1.65;;;;;;;30.59;25.81;101322.34;5024516;28;20135;-67
2022/06/03 12:55:09;;;;;;;5.57;1.60;;;;;;;30.12;23.73;101336.44;5024529;28;20037;-67
2022/06/03 12:57:49;;;;;;;2.83;2.00;;;;;;;29.62;23.70;101340.00;5025568;28;20045;-67
2022/06/03 13:00:26;;;;;;;2.92;2.03;;;;;;;29.45;24.30;101330.44;5023567;28;20050;-67
2022/06/03 13:02:55;;;;;;;3.60;1.80;;;;;;;28.64;23.99;101320.41;5026136;28;20046;-67
2022/06/03 13:05:28;;;;;;;5.13;4.10;;;;;;;29.51;24.67;101326.97;5023837;28;20045;-67
2022/06/03 13:08:08;;;;;;;2.90;2.30;;;;;;;29.50;24.35;101319.88;5025327;28;20398;-67
2022/06/03 13:10:59;;;;;;;3.25;2.20;;;;;;;29.44;24.30;101309.81;5022827;28;20084;-67